createdAt,value
2018-06-11T00:02:02.448Z,62.14
2018-06-11T00:04:30.711Z,62.58
2018-06-11T00:06:58.958Z,63.38
2018-06-11T00:09:27.085Z,63.72
2018-06-11T00:11:55.144Z,64.48
2018-06-11T00:14:24.009Z,65.81
2018-06-11T00:16:52.369Z,63.55
2018-06-11T00:19:20.487Z,64.27
2018-06-11T00:21:48.534Z,66.28
2018-06-11T00:24:16.616Z,65.20
2018-06-11T00:26:44.664Z,65.99
2018-06-11T00:29:12.813Z,67.01
2018-06-11T00:31:40.919Z,66.83
2018-06-11T00:34:08.992Z,67.14
2018-06-11T00:36:37.110Z,67.56
2018-06-11T00:39:07.638Z,68.49
2018-06-11T00:41:35.918Z,67.29
2018-06-11T00:44:04.545Z,67.91
2018-06-11T00:46:32.696Z,67.92
2018-06-11T00:49:03.004Z,69.67
2018-06-11T00:51:31.282Z,69.57
2018-06-11T00:54:00.037Z,68.45
2018-06-11T00:56:28.175Z,70.24
2018-06-11T00:58:56.629Z,68.89
2018-06-11T01:01:25.318Z,68.98
2018-06-11T01:03:54.354Z,69.03
2018-06-11T01:06:23.342Z,68.14
2018-06-11T01:08:52.043Z,68.20
2018-06-11T01:11:20.186Z,66.61
2018-06-11T01:13:48.349Z,67.95
2018-06-11T01:16:17.766Z,67.79
2018-06-11T01:18:48.088Z,68.18
2018-06-11T01:21:16.369Z,68.39
2018-06-11T01:23:45.114Z,68.46
2018-06-11T01:26:13.537Z,69.49
2018-06-11T01:28:42.322Z,69.36
2018-06-11T01:31:10.471Z,71.07
2018-06-11T01:33:38.623Z,70.73
2018-06-11T01:36:06.750Z,69.96
2018-06-11T01:38:35.299Z,71.38
2018-06-11T01:41:04.616Z,71.81
2018-06-11T01:43:33.031Z,70.66
2018-06-11T01:46:01.695Z,72.22
2018-06-11T01:48:32.493Z,70.57
2018-06-11T01:51:01.060Z,70.18
2018-06-11T01:53:29.171Z,71.83
2018-06-11T01:55:57.253Z,72.19
2018-06-11T01:58:25.464Z,71.99
2018-06-11T02:00:54.212Z,71.56
2018-06-11T02:03:22.697Z,71.57
2018-06-11T02:05:50.835Z,72.16
2018-06-11T02:08:18.974Z,72.36
2018-06-11T02:10:47.524Z,71.54
2018-06-11T02:13:15.667Z,72.57
2018-06-11T02:15:43.839Z,72.65
2018-06-11T02:18:13.173Z,71.34
2018-06-11T02:20:41.317Z,71.38
2018-06-11T02:23:10.223Z,71.98
2018-06-11T02:25:39.183Z,72.32
2018-06-11T02:28:07.327Z,70.94
2018-06-11T02:30:35.498Z,73.03
2018-06-11T02:33:04.005Z,72.12
2018-06-11T02:35:32.871Z,73.09
2018-06-11T02:38:00.988Z,73.29
2018-06-11T02:40:29.318Z,72.32
2018-06-11T02:42:57.487Z,72.13
2018-06-11T02:45:25.765Z,73.84
2018-06-11T02:47:54.327Z,73.46
2018-06-11T02:50:23.309Z,72.17
2018-06-11T02:54:12.092Z,72.96
2018-06-11T02:56:40.200Z,73.63
2018-06-11T02:59:09.366Z,73.10
2018-06-11T03:01:38.014Z,73.39
2018-06-11T03:04:06.328Z,74.48
2018-06-11T03:06:35.359Z,73.43
2018-06-11T03:09:03.934Z,74.08
2018-06-11T03:11:32.080Z,75.00
2018-06-11T03:14:00.311Z,74.15
2018-06-11T03:16:28.384Z,74.44
2018-06-11T03:18:57.052Z,74.72
2018-06-11T03:21:25.135Z,74.43
2018-06-11T03:23:53.718Z,73.41
2018-06-11T03:26:22.567Z,75.34
2018-06-11T03:28:54.222Z,76.00
2018-06-11T03:31:22.391Z,75.97
2018-06-11T03:33:53.335Z,75.33
2018-06-11T03:36:21.659Z,75.62
2018-06-11T03:38:49.826Z,74.54
2018-06-11T03:41:18.311Z,76.07
2018-06-11T03:43:46.531Z,75.24
2018-06-11T03:46:15.684Z,75.72
2018-06-11T03:48:43.799Z,75.07
2018-06-11T03:51:13.391Z,74.10
2018-06-11T03:53:41.521Z,74.73
2018-06-11T03:56:10.074Z,74.50
2018-06-11T03:58:38.196Z,75.41
2018-06-11T04:01:06.316Z,74.02
2018-06-11T04:03:34.478Z,75.82
2018-06-11T04:06:02.706Z,75.87
2018-06-11T04:08:32.077Z,76.12
2018-06-11T04:11:00.801Z,74.90
2018-06-11T04:13:29.457Z,74.17
2018-06-11T04:15:57.570Z,73.27
2018-06-11T04:18:25.758Z,74.52
2018-06-11T04:20:54.931Z,75.04
2018-06-11T04:23:23.970Z,74.18
2018-06-11T04:25:52.302Z,74.55
2018-06-11T04:28:20.629Z,75.46
2018-06-11T04:30:49.123Z,75.97
2018-06-11T04:33:17.271Z,74.67
2018-06-11T04:35:45.349Z,74.54
2018-06-11T04:38:13.443Z,73.51
2018-06-11T04:40:41.596Z,73.81
2018-06-11T04:43:09.655Z,73.44
2018-06-11T04:45:37.756Z,74.56
2018-06-11T04:48:06.164Z,74.24
2018-06-11T04:50:34.660Z,73.13
2018-06-11T04:53:03.391Z,74.56
2018-06-11T04:55:31.711Z,74.88
2018-06-11T04:57:59.857Z,74.33
2018-06-11T05:00:28.717Z,73.85
2018-06-11T05:02:57.767Z,75.45
2018-06-11T05:05:25.900Z,74.25
2018-06-11T05:15:48.996Z,73.85
2018-06-11T05:18:17.192Z,74.68
2018-06-11T05:20:46.459Z,74.57
2018-06-11T05:23:14.612Z,73.64
2018-06-11T05:25:42.715Z,72.00
2018-06-11T05:28:10.866Z,72.47
2018-06-11T05:30:40.334Z,72.22
2018-06-11T05:33:09.741Z,72.68
2018-06-11T05:35:38.027Z,72.67
2018-06-11T05:38:07.902Z,72.81
2018-06-11T05:40:36.229Z,73.09
2018-06-11T05:43:04.432Z,74.46
2018-06-11T05:45:32.859Z,73.53
2018-06-11T05:48:01.005Z,73.89
2018-06-11T05:50:29.406Z,73.10
2018-06-11T05:52:58.132Z,72.83
2018-06-11T05:55:26.310Z,71.01
2018-06-11T05:57:55.385Z,71.57
2018-06-11T06:00:23.626Z,71.34
2018-06-11T06:02:51.810Z,70.07
2018-06-11T06:05:19.947Z,70.57
2018-06-11T06:07:48.088Z,70.45
2018-06-11T06:10:16.278Z,70.83
2018-06-11T06:12:44.467Z,70.68
2018-06-11T06:15:13.277Z,70.81
2018-06-11T06:17:43.626Z,70.87
2018-06-11T06:20:11.747Z,71.60
2018-06-11T06:22:41.179Z,70.39
2018-06-11T06:25:10.658Z,71.06
2018-06-11T06:27:38.828Z,69.61
2018-06-11T06:30:07.384Z,70.84
2018-06-11T06:32:37.096Z,69.35
2018-06-11T06:35:05.355Z,68.85
2018-06-11T06:37:33.609Z,68.02
2018-06-11T06:40:02.130Z,69.20
2018-06-11T06:42:30.334Z,69.41
2018-06-11T06:44:58.915Z,68.05
2018-06-11T06:47:27.118Z,67.28
2018-06-11T06:49:55.879Z,66.02
2018-06-11T06:52:24.119Z,66.47
2018-06-11T06:54:52.231Z,65.73
2018-06-11T06:57:23.126Z,66.95
2018-06-11T06:59:52.424Z,65.29
2018-06-11T07:02:21.203Z,65.89
2018-06-11T07:04:49.294Z,64.41
2018-06-11T07:07:17.411Z,64.43
2018-06-11T07:09:45.570Z,64.83
2018-06-11T07:12:13.775Z,64.89
2018-06-11T07:14:41.890Z,66.01
2018-06-11T07:17:11.387Z,65.37
2018-06-11T07:19:39.589Z,65.07
2018-06-11T07:22:07.696Z,64.16
2018-06-11T07:24:35.834Z,63.00
2018-06-11T07:27:04.017Z,63.51
2018-06-11T07:29:32.948Z,62.85
2018-06-11T07:32:01.070Z,63.77
2018-06-11T07:34:29.840Z,62.90
2018-06-11T07:36:58.025Z,63.97
2018-06-11T07:39:26.151Z,63.82
2018-06-11T07:41:57.915Z,64.57
2018-06-11T07:44:41.523Z,63.87
2018-06-11T07:47:17.682Z,63.75
2018-06-11T07:49:46.271Z,62.57
2018-06-11T07:52:14.515Z,63.08
2018-06-11T07:54:43.055Z,63.04
2018-06-11T07:57:12.707Z,63.14
2018-06-11T07:59:41.079Z,62.14
2018-06-11T08:02:11.488Z,62.42
2018-06-11T08:04:41.336Z,63.12
2018-06-11T08:07:09.911Z,62.70
2018-06-11T08:09:38.531Z,62.26
2018-06-11T08:12:07.405Z,61.72
2018-06-11T08:14:36.135Z,61.38
2018-06-11T08:17:04.238Z,60.25
2018-06-11T08:19:32.821Z,62.05
2018-06-11T08:22:00.944Z,60.55
2018-06-11T08:24:29.938Z,61.15
2018-06-11T08:26:58.059Z,58.65
2018-06-11T08:29:26.933Z,61.06
2018-06-11T08:31:56.064Z,60.58
2018-06-11T08:34:24.199Z,60.65
2018-06-11T08:36:52.340Z,61.09
2018-06-11T08:39:20.552Z,60.97
2018-06-11T08:41:48.687Z,61.52
2018-06-11T08:44:16.758Z,60.58
2018-06-11T08:46:46.654Z,60.90
2018-06-11T08:49:15.050Z,60.11
2018-06-11T08:51:44.643Z,61.02
2018-06-11T08:54:12.753Z,61.16
2018-06-11T08:56:40.927Z,59.58
2018-06-11T08:59:09.079Z,60.05
2018-06-11T09:01:37.235Z,61.40
2018-06-11T09:04:05.469Z,60.91
2018-06-11T09:06:34.441Z,59.52
2018-06-11T09:09:02.560Z,59.78
2018-06-11T09:11:30.714Z,59.68
2018-06-11T09:13:58.799Z,59.53
2018-06-11T09:16:26.968Z,58.09
2018-06-11T09:18:55.047Z,58.47
2018-06-11T09:21:23.183Z,58.60
2018-06-11T09:23:51.344Z,56.82
2018-06-11T09:26:19.564Z,56.44
2018-06-11T09:28:47.671Z,56.21
2018-06-11T09:31:15.982Z,56.80
2018-06-11T09:33:44.106Z,56.56
2018-06-11T09:36:13.800Z,56.75
2018-06-11T09:38:41.903Z,56.47
2018-06-11T09:41:10.352Z,54.69
2018-06-11T09:43:38.627Z,55.70
2018-06-11T09:46:08.293Z,55.75
2018-06-11T09:48:38.876Z,54.38
2018-06-11T09:51:07.055Z,53.46
2018-06-11T09:53:35.184Z,53.69
2018-06-11T09:56:03.712Z,54.98
2018-06-11T09:58:31.831Z,54.23
2018-06-11T10:00:59.964Z,54.08
2018-06-11T10:03:28.300Z,53.21
2018-06-11T10:05:56.498Z,53.94
2018-06-11T10:08:24.603Z,53.33
2018-06-11T10:10:53.399Z,53.68
2018-06-11T10:13:21.486Z,52.83
2018-06-11T10:15:49.627Z,52.02
2018-06-11T10:18:18.190Z,51.55
2018-06-11T10:20:47.159Z,50.46
2018-06-11T10:23:15.657Z,49.58
2018-06-11T10:25:43.757Z,49.89
2018-06-11T10:28:12.979Z,51.20
2018-06-11T10:30:41.097Z,52.15
2018-06-11T10:33:09.252Z,51.69
2018-06-11T10:35:38.240Z,50.55
2018-06-11T10:38:06.593Z,51.61
2018-06-11T10:40:35.108Z,50.58
2018-06-11T10:43:03.256Z,51.76
2018-06-11T10:45:31.513Z,50.17
2018-06-11T10:47:59.689Z,50.25
2018-06-11T10:50:28.334Z,49.42
2018-06-11T10:52:56.691Z,50.13
2018-06-11T10:55:25.295Z,50.94
2018-06-11T10:57:53.404Z,50.43
2018-06-11T11:00:21.561Z,50.33
2018-06-11T11:02:49.662Z,50.70
2018-06-11T11:05:17.758Z,50.33
2018-06-11T11:07:45.911Z,50.60
2018-06-11T11:10:14.075Z,51.67
2018-06-11T11:12:42.241Z,49.79
2018-06-11T11:15:10.498Z,49.93
2018-06-11T11:17:39.094Z,49.79
2018-06-11T11:20:07.486Z,50.41
2018-06-11T11:22:35.657Z,49.24
2018-06-11T11:25:03.880Z,48.82
2018-06-11T11:27:32.344Z,48.46
2018-06-11T11:30:01.377Z,46.90
2018-06-11T11:32:29.994Z,46.00
2018-06-11T11:34:58.261Z,47.67
2018-06-11T11:37:27.023Z,48.57
2018-06-11T11:39:55.537Z,45.15
2018-06-11T11:42:24.017Z,43.29
2018-06-11T11:44:52.295Z,43.82
2018-06-11T11:47:20.702Z,44.36
2018-06-11T11:49:48.883Z,47.03
2018-06-11T11:52:16.995Z,49.23
2018-06-11T11:54:45.138Z,48.44
2018-06-11T11:57:13.984Z,48.86
2018-06-11T11:59:42.112Z,48.57
2018-06-11T12:02:10.307Z,49.95
2018-06-11T12:04:38.509Z,51.41
2018-06-11T12:07:06.672Z,51.25
2018-06-11T12:09:34.739Z,50.43
2018-06-11T12:12:03.100Z,51.30
2018-06-11T12:14:31.341Z,50.80
2018-06-11T12:16:59.722Z,51.57
2018-06-11T12:19:27.998Z,51.00
2018-06-11T12:21:58.209Z,51.17
2018-06-11T12:24:27.094Z,52.24
2018-06-11T12:26:55.475Z,51.92
2018-06-11T12:29:23.562Z,52.13
2018-06-11T12:31:51.663Z,52.72
2018-06-11T12:34:19.761Z,52.60
2018-06-11T12:36:48.172Z,53.43
2018-06-11T12:39:16.307Z,53.56
2018-06-11T12:41:44.387Z,53.99
2018-06-11T12:44:13.285Z,53.48
2018-06-11T12:46:41.370Z,53.15
2018-06-11T12:49:09.453Z,54.39
2018-06-11T12:51:37.560Z,53.59
2018-06-11T12:54:05.738Z,54.75
2018-06-11T12:56:33.849Z,54.01
2018-06-11T12:59:03.212Z,54.00
2018-06-11T13:01:31.326Z,53.75
2018-06-11T13:03:59.896Z,54.95
2018-06-11T13:06:28.018Z,54.67
2018-06-11T13:08:56.173Z,54.43
2018-06-11T13:11:24.288Z,54.97
2018-06-11T13:13:52.390Z,54.58
2018-06-11T13:16:20.530Z,54.98
2018-06-11T13:18:49.247Z,55.63
2018-06-11T13:21:17.380Z,54.55
2018-06-11T13:23:46.126Z,55.96
2018-06-11T13:26:14.232Z,55.09
2018-06-11T13:28:42.401Z,55.73
2018-06-11T13:31:10.656Z,55.12
2018-06-11T13:33:38.874Z,56.42
2018-06-11T13:36:07.095Z,55.38
2018-06-11T13:38:35.457Z,56.21
2018-06-11T13:41:03.563Z,58.53
2018-06-11T13:43:31.705Z,56.93
2018-06-11T13:45:59.873Z,56.94
2018-06-11T13:48:28.135Z,57.29
2018-06-11T13:50:57.221Z,57.35
2018-06-11T13:53:25.343Z,56.94
2018-06-11T13:55:53.540Z,56.18
2018-06-11T13:58:21.992Z,57.04
2018-06-11T14:00:50.101Z,56.54
2018-06-11T14:03:18.229Z,57.50
2018-06-11T14:05:46.365Z,58.64
2018-06-11T14:08:14.465Z,58.68
2018-06-11T14:10:42.648Z,58.31
2018-06-11T14:13:11.019Z,58.40
2018-06-11T14:15:39.630Z,58.56
2018-06-11T14:18:07.863Z,59.26
2018-06-11T14:20:36.043Z,60.42
2018-06-11T14:23:04.339Z,58.83
2018-06-11T14:25:32.627Z,59.08
2018-06-11T14:28:00.796Z,59.38
2018-06-11T14:30:28.960Z,60.02
2018-06-11T14:32:57.699Z,59.76
2018-06-11T14:35:25.834Z,60.80
2018-06-11T14:37:53.977Z,59.12
2018-06-11T14:40:22.092Z,60.05
2018-06-11T14:42:50.613Z,58.53
2018-06-11T14:45:18.804Z,60.12
2018-06-11T14:47:46.966Z,61.65
2018-06-11T14:50:15.969Z,62.90
2018-06-11T14:52:44.985Z,63.83
2018-06-11T14:55:13.068Z,64.65
2018-06-11T14:57:41.367Z,64.17
2018-06-11T15:00:09.497Z,63.53
2018-06-11T15:02:37.605Z,64.43
2018-06-11T15:05:05.726Z,64.19
2018-06-11T15:07:34.509Z,67.33
2018-06-11T15:10:02.664Z,65.54
2018-06-11T15:12:30.762Z,67.78
2018-06-11T15:14:58.908Z,72.02
2018-06-11T15:17:28.792Z,69.65
2018-06-11T15:19:58.311Z,71.04
2018-06-11T15:22:26.936Z,70.48
2018-06-11T15:25:16.408Z,70.30
2018-06-11T15:27:44.509Z,71.65
2018-06-11T15:30:12.682Z,71.13
2018-06-11T15:32:40.806Z,71.05
2018-06-11T15:35:09.079Z,71.36
2018-06-11T15:37:37.790Z,71.21
2018-06-11T15:40:05.898Z,72.13
2018-06-11T15:42:34.470Z,73.48
2018-06-11T15:45:02.582Z,75.10
2018-06-11T15:47:30.862Z,72.03
2018-06-11T15:49:58.961Z,72.27
2018-06-11T15:52:28.072Z,71.98
2018-06-11T15:54:56.142Z,75.90
2018-06-11T15:57:24.994Z,76.13
2018-06-11T15:59:54.035Z,77.69
2018-06-11T16:02:22.145Z,76.47
2018-06-11T16:04:50.222Z,76.08
2018-06-11T16:07:18.350Z,75.76
2018-06-11T16:09:46.426Z,76.83
2018-06-11T16:12:15.055Z,78.13
2018-06-11T16:14:43.110Z,78.72
2018-06-11T16:17:11.162Z,78.57
2018-06-11T16:19:39.241Z,78.85
2018-06-11T16:22:07.331Z,79.08
2018-06-11T16:24:35.474Z,80.49
2018-06-11T16:27:04.002Z,79.26
2018-06-11T16:29:32.066Z,77.09
2018-06-11T16:32:00.151Z,80.25
2018-06-11T16:34:28.271Z,76.83
2018-06-11T16:36:57.420Z,80.48
2018-06-11T16:39:25.510Z,78.14
2018-06-11T16:41:54.144Z,77.75
2018-06-11T16:44:22.224Z,79.18
2018-06-11T16:46:50.330Z,79.29
2018-06-11T16:49:18.509Z,79.13
2018-06-11T16:51:46.714Z,79.05
2018-06-11T16:54:15.446Z,80.41
2018-06-11T16:56:44.595Z,81.98
2018-06-11T16:59:12.718Z,81.69
2018-06-11T17:01:40.910Z,79.29
2018-06-11T17:04:09.284Z,81.49
2018-06-11T17:06:37.346Z,81.59
2018-06-11T17:09:07.782Z,82.13
2018-06-11T17:11:36.694Z,81.53
2018-06-11T17:14:04.818Z,82.88
2018-06-11T17:16:32.896Z,81.00
2018-06-11T17:19:01.968Z,79.94
2018-06-11T17:21:30.091Z,81.67
2018-06-11T17:23:58.616Z,79.14
2018-06-11T17:26:27.659Z,78.10
2018-06-11T17:28:55.724Z,79.80
2018-06-11T17:31:23.920Z,81.12
2018-06-11T17:33:52.286Z,80.09
2018-06-11T17:36:21.759Z,80.09
2018-06-11T17:38:50.790Z,78.91
2018-06-11T17:41:21.214Z,81.50
2018-06-11T17:43:49.303Z,80.75
2018-06-11T17:46:17.550Z,80.91
2018-06-11T17:48:47.626Z,80.25
2018-06-11T17:51:15.760Z,81.13
2018-06-11T17:53:44.352Z,80.53
2018-06-11T17:56:12.614Z,80.44
2018-06-11T17:58:41.979Z,81.49
2018-06-11T18:01:10.190Z,80.39
2018-06-11T18:03:38.363Z,82.25
2018-06-11T18:06:07.624Z,80.61
2018-06-11T18:08:35.646Z,79.27
2018-06-11T18:11:03.821Z,79.68
2018-06-11T18:13:32.046Z,80.41
2018-06-11T18:16:00.657Z,80.14
2018-06-11T18:18:29.262Z,81.54
2018-06-11T18:20:57.979Z,80.24
2018-06-11T18:23:26.425Z,79.53
2018-06-11T18:25:54.574Z,79.08
2018-06-11T18:28:22.763Z,79.73
2018-06-11T18:30:51.595Z,80.56
2018-06-11T18:33:19.701Z,80.49
2018-06-11T18:35:48.027Z,79.88
2018-06-11T18:38:16.197Z,78.95
2018-06-11T18:40:44.628Z,78.71
2018-06-11T18:43:15.157Z,79.11
2018-06-11T18:45:43.322Z,79.26
2018-06-11T18:48:12.307Z,78.06
2018-06-11T18:50:42.630Z,79.62
2018-06-11T18:53:11.063Z,78.02
2018-06-11T18:55:39.467Z,77.58
2018-06-11T18:58:07.984Z,79.41
2018-06-11T19:00:36.150Z,79.24
2018-06-11T19:03:04.863Z,78.67
2018-06-11T19:05:33.630Z,77.09
2018-06-11T19:08:01.921Z,79.03
2018-06-11T19:10:36.271Z,79.98
2018-06-11T19:13:04.560Z,79.29
2018-06-11T19:15:33.663Z,78.82
2018-06-11T19:18:02.734Z,77.75
2018-06-11T19:20:32.004Z,79.04
2018-06-11T19:23:00.324Z,78.99
2018-06-11T19:25:29.322Z,79.94
2018-06-11T19:27:59.565Z,81.18
2018-06-11T19:30:29.088Z,79.69
2018-06-11T19:32:57.306Z,79.19
2018-06-11T19:35:25.477Z,78.29
2018-06-11T19:37:55.049Z,78.70
2018-06-11T19:40:23.447Z,78.71
2018-06-11T19:42:51.658Z,77.63
2018-06-11T19:45:20.417Z,78.23
2018-06-11T19:47:48.590Z,79.20
2018-06-11T19:50:17.578Z,78.17
2018-06-11T19:52:45.637Z,79.29
2018-06-11T19:55:14.159Z,77.70
2018-06-11T19:57:42.234Z,78.42
2018-06-11T20:00:10.334Z,77.67
2018-06-11T20:02:38.421Z,78.11
2018-06-11T20:05:07.520Z,79.02
2018-06-11T20:07:36.781Z,78.48
2018-06-11T20:10:05.082Z,77.01
2018-06-11T20:12:33.289Z,79.39
2018-06-11T20:15:01.373Z,79.56
2018-06-11T20:17:30.527Z,78.63
2018-06-11T20:20:00.947Z,78.66
2018-06-11T20:22:29.638Z,79.27
2018-06-11T20:24:57.925Z,79.08
2018-06-11T20:27:27.294Z,79.02
2018-06-11T20:29:55.403Z,78.96
2018-06-11T20:32:23.566Z,79.32
2018-06-11T20:34:51.807Z,80.26
2018-06-11T20:37:20.033Z,80.89
2018-06-11T20:39:48.128Z,79.65
2018-06-11T20:42:16.410Z,78.67
2018-06-11T20:44:44.516Z,78.89
2018-06-11T20:47:13.747Z,77.82
2018-06-11T20:49:42.043Z,78.17
2018-06-11T20:52:11.468Z,79.08
2018-06-11T20:54:39.602Z,78.99
2018-06-11T20:57:07.930Z,78.48
2018-06-11T20:59:36.006Z,78.22
2018-06-11T21:02:04.066Z,78.24
2018-06-11T21:04:32.351Z,78.62
2018-06-11T21:07:01.410Z,78.81
2018-06-11T21:09:29.866Z,78.06
2018-06-11T21:11:58.109Z,77.50
2018-06-11T21:14:26.234Z,77.83
2018-06-11T21:16:54.405Z,78.80
2018-06-11T21:19:22.818Z,78.32
2018-06-11T21:21:51.863Z,78.48
2018-06-11T21:24:20.266Z,77.18
2018-06-11T21:26:48.552Z,78.06
2018-06-11T21:29:16.790Z,77.76
2018-06-11T21:31:44.917Z,75.74
2018-06-11T21:34:13.167Z,76.10
2018-06-11T21:36:41.296Z,77.07
2018-06-11T21:39:09.396Z,76.37
2018-06-11T21:41:38.416Z,76.24
2018-06-11T21:44:06.738Z,76.31
2018-06-11T21:46:35.032Z,76.38
2018-06-11T21:49:03.226Z,76.54
2018-06-11T21:51:31.382Z,75.82
2018-06-11T21:54:01.131Z,75.49
2018-06-11T21:56:30.394Z,75.32
2018-06-11T21:58:59.473Z,76.22
2018-06-11T22:01:27.993Z,75.43
2018-06-11T22:03:56.435Z,76.36
2018-06-11T22:06:24.612Z,75.50
2018-06-11T22:08:52.858Z,76.24
2018-06-11T22:11:21.146Z,75.06
2018-06-11T22:13:50.082Z,76.03
2018-06-11T22:16:18.232Z,75.90
2018-06-11T22:18:46.352Z,75.59
2018-06-11T22:21:14.643Z,75.71
2018-06-11T22:23:42.947Z,75.63
2018-06-11T22:26:11.736Z,74.77
2018-06-11T22:28:40.480Z,75.63
2018-06-11T22:31:08.815Z,75.90
2018-06-11T22:33:37.002Z,76.31
2018-06-11T22:36:05.259Z,75.07
2018-06-11T22:38:33.469Z,75.28
2018-06-11T22:41:01.741Z,74.77
2018-06-11T22:43:30.375Z,74.62
2018-06-11T22:45:59.285Z,74.36
2018-06-11T22:48:27.445Z,75.59
2018-06-11T22:50:55.834Z,75.72
2018-06-11T22:53:25.126Z,74.98
2018-06-11T22:55:53.301Z,75.37
2018-06-11T22:58:22.141Z,74.51
2018-06-11T23:00:50.274Z,74.15
2018-06-11T23:03:18.394Z,74.31
2018-06-11T23:05:46.614Z,74.82
2018-06-11T23:08:15.554Z,74.58
2018-06-11T23:10:44.396Z,74.69
2018-06-11T23:13:12.508Z,75.29
2018-06-11T23:15:41.003Z,74.44
2018-06-11T23:18:09.520Z,74.07
2018-06-11T23:20:37.633Z,73.98
2018-06-11T23:23:06.338Z,73.44
2018-06-11T23:25:34.460Z,73.14
2018-06-11T23:28:02.954Z,73.68
2018-06-11T23:30:31.134Z,74.06
2018-06-11T23:32:59.432Z,73.51
2018-06-11T23:35:27.560Z,73.58
2018-06-11T23:37:55.690Z,73.85
2018-06-11T23:40:23.870Z,74.15
2018-06-11T23:42:52.113Z,73.44
2018-06-11T23:45:22.099Z,72.97
2018-06-11T23:47:50.515Z,72.24
2018-06-11T23:50:18.659Z,73.00
2018-06-11T23:52:46.796Z,74.78
2018-06-11T23:55:15.145Z,74.82
2018-06-11T23:57:43.266Z,74.08
